sensor_id;sensor_type;location;lat;lon;timestamp;temperature;humidity
50013;DHT22;35901;48.694;9.476;2024-01-16T00:00:06;-1.50;99.90
50013;DHT22;35901;48.694;9.476;2024-01-16T00:02:34;-1.50;99.90
50013;DHT22;35901;48.694;9.476;2024-01-16T00:05:00;-1.50;99.90
50013;DHT22;35901;48.694;9.476;2024-01-16T00:07:26;-1.50;99.90
50013;DHT22;35901;48.694;9.476;2024-01-16T00:09:56;-1.50;99.90
50013;DHT22;35901;48.694;9.476;2024-01-16T00:12:26;-1.50;99.90
50013;DHT22;35901;48.694;9.476;2024-01-16T00:14:53;-1.50;99.90
50013;DHT22;35901;48.694;9.476;2024-01-16T00:17:21;-1.50;99.90
50013;DHT22;35901;48.694;9.476;2024-01-16T00:19:47;-1.50;99.90
50013;DHT22;35901;48.694;9.476;2024-01-16T00:22:13;-1.50;99.90
50013;DHT22;35901;48.694;9.476;2024-01-16T00:24:39;-1.50;99.90
50013;DHT22;35901;48.694;9.476;2024-01-16T00:27:07;-1.60;99.90
50013;DHT22;35901;48.694;9.476;2024-01-16T00:29:33;-1.60;99.90
50013;DHT22;35901;48.694;9.476;2024-01-16T00:31:59;-1.60;99.90
50013;DHT22;35901;48.694;9.476;2024-01-16T00:34:26;-1.60;99.90
50013;DHT22;35901;48.694;9.476;2024-01-16T00:36:52;-1.70;99.90
50013;DHT22;35901;48.694;9.476;2024-01-16T00:39:28;-1.70;99.90
50013;DHT22;35901;48.694;9.476;2024-01-16T00:41:54;-1.70;99.90
50013;DHT22;35901;48.694;9.476;2024-01-16T00:44:20;-1.70;99.90
50013;DHT22;35901;48.694;9.476;2024-01-16T00:46:45;-1.70;99.90
50013;DHT22;35901;48.694;9.476;2024-01-16T00:49:11;-1.70;99.90
50013;DHT22;35901;48.694;9.476;2024-01-16T00:51:37;-1.70;99.90
50013;DHT22;35901;48.694;9.476;2024-01-16T00:54:03;-1.70;99.90
50013;DHT22;35901;48.694;9.476;2024-01-16T00:56:29;-1.70;99.90
50013;DHT22;35901;48.694;9.476;2024-01-16T00:58:56;-1.70;99.90
50013;DHT22;35901;48.694;9.476;2024-01-16T01:01:23;-1.80;99.90
50013;DHT22;35901;48.694;9.476;2024-01-16T01:03:48;-1.80;99.90
50013;DHT22;35901;48.694;9.476;2024-01-16T01:06:15;-1.80;99.90
50013;DHT22;35901;48.694;9.476;2024-01-16T01:08:40;-1.90;99.90
50013;DHT22;35901;48.694;9.476;2024-01-16T01:11:06;-1.90;99.90
50013;DHT22;35901;48.694;9.476;2024-01-16T01:13:32;-2.00;99.90
50013;DHT22;35901;48.694;9.476;2024-01-16T01:15:57;-2.00;99.90
50013;DHT22;35901;48.694;9.476;2024-01-16T01:18:23;-2.00;99.90
50013;DHT22;35901;48.694;9.476;2024-01-16T01:20:49;-2.00;99.90
50013;DHT22;35901;48.694;9.476;2024-01-16T01:23:45;-2.00;99.90
50013;DHT22;35901;48.694;9.476;2024-01-16T01:26:11;-2.00;99.90
50013;DHT22;35901;48.694;9.476;2024-01-16T01:28:40;-2.00;99.90
50013;DHT22;35901;48.694;9.476;2024-01-16T01:31:08;-2.00;99.90
50013;DHT22;35901;48.694;9.476;2024-01-16T01:33:33;-2.10;99.90
50013;DHT22;35901;48.694;9.476;2024-01-16T01:35:59;-2.10;99.90
50013;DHT22;35901;48.694;9.476;2024-01-16T01:38:25;-2.00;99.90
50013;DHT22;35901;48.694;9.476;2024-01-16T01:40:50;-2.00;99.90
50013;DHT22;35901;48.694;9.476;2024-01-16T01:43:20;-2.00;99.90
50013;DHT22;35901;48.694;9.476;2024-01-16T01:46:09;-2.00;99.90
50013;DHT22;35901;48.694;9.476;2024-01-16T01:48:37;-2.00;99.90
50013;DHT22;35901;48.694;9.476;2024-01-16T01:51:03;-2.00;99.90
50013;DHT22;35901;48.694;9.476;2024-01-16T01:53:30;-2.00;99.90
50013;DHT22;35901;48.694;9.476;2024-01-16T01:55:56;-2.00;99.90
50013;DHT22;35901;48.694;9.476;2024-01-16T01:58:23;-2.00;99.90
50013;DHT22;35901;48.694;9.476;2024-01-16T02:00:49;-2.00;99.90
50013;DHT22;35901;48.694;9.476;2024-01-16T02:03:15;-2.00;99.90
50013;DHT22;35901;48.694;9.476;2024-01-16T02:05:41;-2.10;99.90
50013;DHT22;35901;48.694;9.476;2024-01-16T02:08:08;-2.10;99.90
50013;DHT22;35901;48.694;9.476;2024-01-16T02:10:35;-2.00;99.90
50013;DHT22;35901;48.694;9.476;2024-01-16T02:13:03;-2.00;99.90
50013;DHT22;35901;48.694;9.476;2024-01-16T02:15:29;-2.00;99.90
50013;DHT22;35901;48.694;9.476;2024-01-16T02:17:54;-2.00;99.90
50013;DHT22;35901;48.694;9.476;2024-01-16T02:20:20;-2.00;99.90
50013;DHT22;35901;48.694;9.476;2024-01-16T02:22:55;-2.00;99.90
50013;DHT22;35901;48.694;9.476;2024-01-16T02:25:21;-1.90;99.90
50013;DHT22;35901;48.694;9.476;2024-01-16T02:27:47;-1.90;99.90
50013;DHT22;35901;48.694;9.476;2024-01-16T02:30:13;-1.90;99.90
50013;DHT22;35901;48.694;9.476;2024-01-16T02:32:38;-2.00;99.90
50013;DHT22;35901;48.694;9.476;2024-01-16T02:35:04;-2.00;99.90
50013;DHT22;35901;48.694;9.476;2024-01-16T02:37:30;-2.00;99.90
50013;DHT22;35901;48.694;9.476;2024-01-16T02:39:56;-2.00;99.90
50013;DHT22;35901;48.694;9.476;2024-01-16T02:42:21;-2.00;99.90
50013;DHT22;35901;48.694;9.476;2024-01-16T02:44:47;-2.10;99.90
50013;DHT22;35901;48.694;9.476;2024-01-16T02:47:13;-2.10;99.90
50013;DHT22;35901;48.694;9.476;2024-01-16T02:49:38;-2.10;99.90
50013;DHT22;35901;48.694;9.476;2024-01-16T02:52:05;-2.10;99.90
50013;DHT22;35901;48.694;9.476;2024-01-16T02:54:31;-2.10;99.90
50013;DHT22;35901;48.694;9.476;2024-01-16T02:56:56;-2.10;99.90
50013;DHT22;35901;48.694;9.476;2024-01-16T02:59:22;-2.10;99.90
50013;DHT22;35901;48.694;9.476;2024-01-16T03:01:48;-2.10;99.90
50013;DHT22;35901;48.694;9.476;2024-01-16T03:04:13;-2.10;99.90
50013;DHT22;35901;48.694;9.476;2024-01-16T03:06:40;-2.10;99.90
50013;DHT22;35901;48.694;9.476;2024-01-16T03:09:05;-2.20;99.90
50013;DHT22;35901;48.694;9.476;2024-01-16T03:11:32;-2.20;99.90
50013;DHT22;35901;48.694;9.476;2024-01-16T03:13:58;-2.30;99.90
50013;DHT22;35901;48.694;9.476;2024-01-16T03:16:25;-2.30;99.90
50013;DHT22;35901;48.694;9.476;2024-01-16T03:18:50;-2.30;99.90
50013;DHT22;35901;48.694;9.476;2024-01-16T03:21:16;-2.30;99.90
50013;DHT22;35901;48.694;9.476;2024-01-16T03:23:42;-2.30;99.90
50013;DHT22;35901;48.694;9.476;2024-01-16T03:26:12;-2.40;99.90
50013;DHT22;35901;48.694;9.476;2024-01-16T03:28:38;-2.50;99.90
50013;DHT22;35901;48.694;9.476;2024-01-16T03:31:05;-2.60;99.90
50013;DHT22;35901;48.694;9.476;2024-01-16T03:33:30;-2.70;99.90
50013;DHT22;35901;48.694;9.476;2024-01-16T03:35:56;-2.80;99.90
50013;DHT22;35901;48.694;9.476;2024-01-16T03:38:22;-2.90;99.90
50013;DHT22;35901;48.694;9.476;2024-01-16T03:40:47;-2.90;99.90
50013;DHT22;35901;48.694;9.476;2024-01-16T03:43:13;-2.80;99.90
50013;DHT22;35901;48.694;9.476;2024-01-16T03:45:39;-2.80;99.90
50013;DHT22;35901;48.694;9.476;2024-01-16T03:48:05;-2.80;99.90
50013;DHT22;35901;48.694;9.476;2024-01-16T03:50:30;-2.80;99.90
50013;DHT22;35901;48.694;9.476;2024-01-16T03:52:56;-2.80;99.90
50013;DHT22;35901;48.694;9.476;2024-01-16T03:55:23;-2.70;99.90
50013;DHT22;35901;48.694;9.476;2024-01-16T03:57:48;-2.80;99.90
50013;DHT22;35901;48.694;9.476;2024-01-16T04:00:16;-2.80;99.90
50013;DHT22;35901;48.694;9.476;2024-01-16T04:02:42;-2.90;99.90
50013;DHT22;35901;48.694;9.476;2024-01-16T04:05:08;-3.00;99.90
50013;DHT22;35901;48.694;9.476;2024-01-16T04:07:33;-3.10;99.90
50013;DHT22;35901;48.694;9.476;2024-01-16T04:09:59;-3.20;99.90
50013;DHT22;35901;48.694;9.476;2024-01-16T04:12:25;-3.40;99.90
50013;DHT22;35901;48.694;9.476;2024-01-16T04:14:50;-3.60;99.90
50013;DHT22;35901;48.694;9.476;2024-01-16T04:17:16;-3.60;99.90
50013;DHT22;35901;48.694;9.476;2024-01-16T04:19:42;-3.70;99.90
50013;DHT22;35901;48.694;9.476;2024-01-16T04:22:07;-3.70;99.90
50013;DHT22;35901;48.694;9.476;2024-01-16T04:24:34;-3.80;99.90
50013;DHT22;35901;48.694;9.476;2024-01-16T04:27:00;-3.80;99.90
50013;DHT22;35901;48.694;9.476;2024-01-16T04:29:25;-3.90;99.90
50013;DHT22;35901;48.694;9.476;2024-01-16T04:31:51;-3.90;99.90
50013;DHT22;35901;48.694;9.476;2024-01-16T04:34:17;-4.00;99.90
50013;DHT22;35901;48.694;9.476;2024-01-16T04:36:42;-4.00;99.90
50013;DHT22;35901;48.694;9.476;2024-01-16T04:39:09;-4.20;99.90
50013;DHT22;35901;48.694;9.476;2024-01-16T04:41:34;-4.40;99.90
50013;DHT22;35901;48.694;9.476;2024-01-16T04:44:01;-4.60;99.90
50013;DHT22;35901;48.694;9.476;2024-01-16T04:46:28;-4.90;99.90
50013;DHT22;35901;48.694;9.476;2024-01-16T04:48:54;-5.20;99.90
50013;DHT22;35901;48.694;9.476;2024-01-16T04:51:20;-5.50;99.90
50013;DHT22;35901;48.694;9.476;2024-01-16T04:53:46;-5.50;99.90
50013;DHT22;35901;48.694;9.476;2024-01-16T04:56:11;-5.50;99.90
50013;DHT22;35901;48.694;9.476;2024-01-16T04:58:37;-5.40;99.90
50013;DHT22;35901;48.694;9.476;2024-01-16T05:01:03;-5.50;99.90
50013;DHT22;35901;48.694;9.476;2024-01-16T05:03:28;-5.40;99.90
50013;DHT22;35901;48.694;9.476;2024-01-16T05:05:54;-5.40;99.90
50013;DHT22;35901;48.694;9.476;2024-01-16T05:08:21;-5.40;99.90
50013;DHT22;35901;48.694;9.476;2024-01-16T05:10:47;-5.30;99.90
50013;DHT22;35901;48.694;9.476;2024-01-16T05:13:13;-5.00;99.90
50013;DHT22;35901;48.694;9.476;2024-01-16T05:15:40;-4.90;99.90
50013;DHT22;35901;48.694;9.476;2024-01-16T05:18:08;-4.70;99.90
50013;DHT22;35901;48.694;9.476;2024-01-16T05:20:35;-4.70;99.90
50013;DHT22;35901;48.694;9.476;2024-01-16T05:23:01;-4.70;99.90
50013;DHT22;35901;48.694;9.476;2024-01-16T05:25:27;-4.80;99.90
50013;DHT22;35901;48.694;9.476;2024-01-16T05:27:52;-4.90;99.90
50013;DHT22;35901;48.694;9.476;2024-01-16T05:30:18;-5.10;99.90
50013;DHT22;35901;48.694;9.476;2024-01-16T05:32:44;-5.20;99.90
50013;DHT22;35901;48.694;9.476;2024-01-16T05:35:10;-5.20;99.90
50013;DHT22;35901;48.694;9.476;2024-01-16T05:37:36;-5.20;99.90
50013;DHT22;35901;48.694;9.476;2024-01-16T05:40:02;-5.20;99.90
50013;DHT22;35901;48.694;9.476;2024-01-16T05:42:29;-5.20;99.90
50013;DHT22;35901;48.694;9.476;2024-01-16T05:44:55;-5.00;99.90
50013;DHT22;35901;48.694;9.476;2024-01-16T05:47:20;-4.90;99.90
50013;DHT22;35901;48.694;9.476;2024-01-16T05:49:49;-4.80;99.90
50013;DHT22;35901;48.694;9.476;2024-01-16T05:52:15;-4.80;99.90
50013;DHT22;35901;48.694;9.476;2024-01-16T05:54:40;-4.80;99.90
50013;DHT22;35901;48.694;9.476;2024-01-16T05:57:06;-4.80;99.90
50013;DHT22;35901;48.694;9.476;2024-01-16T05:59:45;-4.90;99.90
50013;DHT22;35901;48.694;9.476;2024-01-16T06:02:11;-4.90;99.90
50013;DHT22;35901;48.694;9.476;2024-01-16T06:04:36;-4.90;99.90
50013;DHT22;35901;48.694;9.476;2024-01-16T06:07:02;-4.90;99.90
50013;DHT22;35901;48.694;9.476;2024-01-16T06:09:31;-4.80;99.90
50013;DHT22;35901;48.694;9.476;2024-01-16T06:11:57;-4.80;99.90
50013;DHT22;35901;48.694;9.476;2024-01-16T06:14:23;-4.80;99.90
50013;DHT22;35901;48.694;9.476;2024-01-16T06:16:49;-4.70;99.90
50013;DHT22;35901;48.694;9.476;2024-01-16T06:19:16;-4.70;99.90
50013;DHT22;35901;48.694;9.476;2024-01-16T06:21:42;-4.80;99.90
50013;DHT22;35901;48.694;9.476;2024-01-16T06:24:09;-4.70;99.90
50013;DHT22;35901;48.694;9.476;2024-01-16T06:26:36;-4.70;99.90
50013;DHT22;35901;48.694;9.476;2024-01-16T06:29:02;-4.70;99.90
50013;DHT22;35901;48.694;9.476;2024-01-16T06:31:28;-4.80;99.90
50013;DHT22;35901;48.694;9.476;2024-01-16T06:33:54;-4.80;99.90
50013;DHT22;35901;48.694;9.476;2024-01-16T06:36:20;-4.90;99.90
50013;DHT22;35901;48.694;9.476;2024-01-16T06:38:46;-4.90;99.90
50013;DHT22;35901;48.694;9.476;2024-01-16T06:41:11;-4.90;99.90
50013;DHT22;35901;48.694;9.476;2024-01-16T06:43:37;-4.90;99.90
50013;DHT22;35901;48.694;9.476;2024-01-16T06:46:03;-4.90;99.90
50013;DHT22;35901;48.694;9.476;2024-01-16T06:48:29;-4.90;99.90
50013;DHT22;35901;48.694;9.476;2024-01-16T06:50:54;-4.90;99.90
50013;DHT22;35901;48.694;9.476;2024-01-16T06:53:20;-4.90;99.90
50013;DHT22;35901;48.694;9.476;2024-01-16T06:55:46;-5.00;99.90
50013;DHT22;35901;48.694;9.476;2024-01-16T06:58:11;-5.00;99.90
50013;DHT22;35901;48.694;9.476;2024-01-16T07:00:40;-4.90;99.90
50013;DHT22;35901;48.694;9.476;2024-01-16T07:03:07;-4.90;99.90
50013;DHT22;35901;48.694;9.476;2024-01-16T07:05:33;-4.80;99.90
50013;DHT22;35901;48.694;9.476;2024-01-16T07:07:58;-4.70;99.90
50013;DHT22;35901;48.694;9.476;2024-01-16T07:10:24;-4.70;99.90
50013;DHT22;35901;48.694;9.476;2024-01-16T07:12:50;-4.70;99.90
50013;DHT22;35901;48.694;9.476;2024-01-16T07:15:17;-4.60;99.90
50013;DHT22;35901;48.694;9.476;2024-01-16T07:17:43;-4.60;99.90
50013;DHT22;35901;48.694;9.476;2024-01-16T07:20:10;-4.60;99.90
50013;DHT22;35901;48.694;9.476;2024-01-16T07:22:37;-4.50;99.90
50013;DHT22;35901;48.694;9.476;2024-01-16T07:25:05;-4.40;99.90
50013;DHT22;35901;48.694;9.476;2024-01-16T07:27:31;-4.40;99.90
50013;DHT22;35901;48.694;9.476;2024-01-16T07:30:06;-4.40;99.90
50013;DHT22;35901;48.694;9.476;2024-01-16T07:32:33;-4.30;99.90
50013;DHT22;35901;48.694;9.476;2024-01-16T07:34:59;-4.30;99.90
50013;DHT22;35901;48.694;9.476;2024-01-16T07:37:24;-4.30;99.90
50013;DHT22;35901;48.694;9.476;2024-01-16T07:39:51;-4.30;99.90
50013;DHT22;35901;48.694;9.476;2024-01-16T07:42:17;-4.30;99.90
50013;DHT22;35901;48.694;9.476;2024-01-16T07:44:43;-4.20;99.90
50013;DHT22;35901;48.694;9.476;2024-01-16T07:47:09;-4.20;99.90
50013;DHT22;35901;48.694;9.476;2024-01-16T07:49:35;-4.10;99.90
50013;DHT22;35901;48.694;9.476;2024-01-16T07:52:00;-4.10;99.90
50013;DHT22;35901;48.694;9.476;2024-01-16T07:54:26;-4.10;99.90
50013;DHT22;35901;48.694;9.476;2024-01-16T07:56:52;-4.00;99.90
50013;DHT22;35901;48.694;9.476;2024-01-16T07:59:22;-4.00;99.90
50013;DHT22;35901;48.694;9.476;2024-01-16T08:01:47;-3.90;99.90
50013;DHT22;35901;48.694;9.476;2024-01-16T08:04:13;-3.80;99.90
50013;DHT22;35901;48.694;9.476;2024-01-16T08:06:39;-3.80;99.90
50013;DHT22;35901;48.694;9.476;2024-01-16T08:09:04;-3.70;99.90
50013;DHT22;35901;48.694;9.476;2024-01-16T08:11:31;-3.70;99.90
50013;DHT22;35901;48.694;9.476;2024-01-16T08:13:57;-3.70;99.90
50013;DHT22;35901;48.694;9.476;2024-01-16T08:16:23;-3.60;99.90
50013;DHT22;35901;48.694;9.476;2024-01-16T08:18:49;-3.50;99.90
50013;DHT22;35901;48.694;9.476;2024-01-16T08:21:15;-3.50;99.90
50013;DHT22;35901;48.694;9.476;2024-01-16T08:23:41;-3.50;99.90
50013;DHT22;35901;48.694;9.476;2024-01-16T08:26:07;-3.50;99.90
50013;DHT22;35901;48.694;9.476;2024-01-16T08:28:33;-3.50;99.90
50013;DHT22;35901;48.694;9.476;2024-01-16T08:30:59;-3.40;99.90
50013;DHT22;35901;48.694;9.476;2024-01-16T08:33:25;-3.20;99.90
50013;DHT22;35901;48.694;9.476;2024-01-16T08:35:51;-2.90;99.90
50013;DHT22;35901;48.694;9.476;2024-01-16T08:38:16;-2.60;99.90
50013;DHT22;35901;48.694;9.476;2024-01-16T08:40:42;-2.30;99.90
50013;DHT22;35901;48.694;9.476;2024-01-16T08:43:08;-2.20;99.90
50013;DHT22;35901;48.694;9.476;2024-01-16T08:45:33;-2.10;99.90
50013;DHT22;35901;48.694;9.476;2024-01-16T08:47:59;-2.20;99.90
50013;DHT22;35901;48.694;9.476;2024-01-16T08:50:25;-2.20;99.90
50013;DHT22;35901;48.694;9.476;2024-01-16T08:52:51;-2.40;99.90
50013;DHT22;35901;48.694;9.476;2024-01-16T08:55:17;-2.60;99.90
50013;DHT22;35901;48.694;9.476;2024-01-16T08:57:42;-2.70;99.90
50013;DHT22;35901;48.694;9.476;2024-01-16T09:00:13;-2.70;99.90
50013;DHT22;35901;48.694;9.476;2024-01-16T09:02:41;-2.70;99.90
50013;DHT22;35901;48.694;9.476;2024-01-16T09:05:07;-2.60;99.90
50013;DHT22;35901;48.694;9.476;2024-01-16T09:07:32;-2.50;99.90
50013;DHT22;35901;48.694;9.476;2024-01-16T09:09:58;-2.40;99.90
50013;DHT22;35901;48.694;9.476;2024-01-16T09:12:24;-2.40;99.90
50013;DHT22;35901;48.694;9.476;2024-01-16T09:14:51;-2.30;99.90
50013;DHT22;35901;48.694;9.476;2024-01-16T09:17:17;-2.30;99.90
50013;DHT22;35901;48.694;9.476;2024-01-16T09:19:43;-2.30;99.90
50013;DHT22;35901;48.694;9.476;2024-01-16T09:22:08;-2.20;99.90
50013;DHT22;35901;48.694;9.476;2024-01-16T09:24:34;-2.20;99.90
50013;DHT22;35901;48.694;9.476;2024-01-16T09:27:00;-2.10;99.90
50013;DHT22;35901;48.694;9.476;2024-01-16T09:33:14;-2.10;99.90
50013;DHT22;35901;48.694;9.476;2024-01-16T09:35:42;-2.00;99.90
50013;DHT22;35901;48.694;9.476;2024-01-16T09:38:08;-2.00;99.90
50013;DHT22;35901;48.694;9.476;2024-01-16T09:40:34;-2.00;99.90
50013;DHT22;35901;48.694;9.476;2024-01-16T09:43:01;-1.90;99.90
50013;DHT22;35901;48.694;9.476;2024-01-16T09:45:29;-1.90;99.90
50013;DHT22;35901;48.694;9.476;2024-01-16T09:47:56;-1.80;99.90
50013;DHT22;35901;48.694;9.476;2024-01-16T09:50:22;-1.70;99.90
50013;DHT22;35901;48.694;9.476;2024-01-16T09:52:48;-1.60;99.90
50013;DHT22;35901;48.694;9.476;2024-01-16T09:55:15;-1.40;99.90
50013;DHT22;35901;48.694;9.476;2024-01-16T09:57:41;-1.10;99.90
50013;DHT22;35901;48.694;9.476;2024-01-16T10:03:57;-0.60;99.90
50013;DHT22;35901;48.694;9.476;2024-01-16T10:06:27;0.00;99.90
50013;DHT22;35901;48.694;9.476;2024-01-16T10:08:55;0.40;99.90
50013;DHT22;35901;48.694;9.476;2024-01-16T10:11:23;0.50;99.90
50013;DHT22;35901;48.694;9.476;2024-01-16T10:13:51;0.40;99.90
50013;DHT22;35901;48.694;9.476;2024-01-16T10:16:18;0.60;99.90
50013;DHT22;35901;48.694;9.476;2024-01-16T10:18:44;0.70;99.90
50013;DHT22;35901;48.694;9.476;2024-01-16T10:21:21;0.90;99.90
50013;DHT22;35901;48.694;9.476;2024-01-16T10:23:50;0.90;99.90
50013;DHT22;35901;48.694;9.476;2024-01-16T10:26:16;0.80;99.90
50013;DHT22;35901;48.694;9.476;2024-01-16T10:29:03;1.00;99.90
50013;DHT22;35901;48.694;9.476;2024-01-16T10:31:32;1.30;99.90
50013;DHT22;35901;48.694;9.476;2024-01-16T10:33:57;1.60;99.90
50013;DHT22;35901;48.694;9.476;2024-01-16T10:36:24;1.90;99.90
50013;DHT22;35901;48.694;9.476;2024-01-16T10:38:51;2.00;99.90
50013;DHT22;35901;48.694;9.476;2024-01-16T10:41:23;1.90;99.90
50013;DHT22;35901;48.694;9.476;2024-01-16T10:44:05;1.90;99.90
50013;DHT22;35901;48.694;9.476;2024-01-16T10:46:35;1.90;99.90
50013;DHT22;35901;48.694;9.476;2024-01-16T10:49:02;2.00;99.90
50013;DHT22;35901;48.694;9.476;2024-01-16T10:51:29;2.20;99.90
50013;DHT22;35901;48.694;9.476;2024-01-16T10:54:13;2.10;99.90
50013;DHT22;35901;48.694;9.476;2024-01-16T10:56:46;1.90;99.90
50013;DHT22;35901;48.694;9.476;2024-01-16T11:02:44;2.20;99.90
50013;DHT22;35901;48.694;9.476;2024-01-16T11:05:15;2.70;99.90
50013;DHT22;35901;48.694;9.476;2024-01-16T11:07:42;3.00;99.90
50013;DHT22;35901;48.694;9.476;2024-01-16T11:10:10;2.80;99.90
50013;DHT22;35901;48.694;9.476;2024-01-16T11:12:38;2.50;99.90
50013;DHT22;35901;48.694;9.476;2024-01-16T11:15:08;2.00;99.90
50013;DHT22;35901;48.694;9.476;2024-01-16T11:17:38;1.40;99.90
50013;DHT22;35901;48.694;9.476;2024-01-16T11:20:05;1.10;99.90
50013;DHT22;35901;48.694;9.476;2024-01-16T11:22:43;1.30;99.90
50013;DHT22;35901;48.694;9.476;2024-01-16T11:25:13;1.70;99.90
50013;DHT22;35901;48.694;9.476;2024-01-16T11:27:41;2.30;99.90
50013;DHT22;35901;48.694;9.476;2024-01-16T11:33:54;3.20;99.90
50013;DHT22;35901;48.694;9.476;2024-01-16T11:36:51;3.70;99.90
50013;DHT22;35901;48.694;9.476;2024-01-16T11:39:24;4.00;99.90
50013;DHT22;35901;48.694;9.476;2024-01-16T11:44:45;4.10;99.90
50013;DHT22;35901;48.694;9.476;2024-01-16T11:47:25;4.30;99.80
50013;DHT22;35901;48.694;9.476;2024-01-16T11:50:09;4.60;99.70
50013;DHT22;35901;48.694;9.476;2024-01-16T11:52:44;4.80;98.60
50013;DHT22;35901;48.694;9.476;2024-01-16T11:55:27;4.60;96.30
50013;DHT22;35901;48.694;9.476;2024-01-16T12:00:40;4.60;96.50
50013;DHT22;35901;48.694;9.476;2024-01-16T12:03:06;4.60;96.60
50013;DHT22;35901;48.694;9.476;2024-01-16T12:05:32;4.80;97.20
50013;DHT22;35901;48.694;9.476;2024-01-16T12:07:57;4.90;96.70
50013;DHT22;35901;48.694;9.476;2024-01-16T12:10:24;5.00;96.70
50013;DHT22;35901;48.694;9.476;2024-01-16T12:12:51;5.10;94.90
50013;DHT22;35901;48.694;9.476;2024-01-16T12:15:20;5.00;94.60
50013;DHT22;35901;48.694;9.476;2024-01-16T12:17:56;5.10;92.70
50013;DHT22;35901;48.694;9.476;2024-01-16T12:20:24;4.80;90.90
50013;DHT22;35901;48.694;9.476;2024-01-16T12:23:05;4.60;91.30
50013;DHT22;35901;48.694;9.476;2024-01-16T12:25:33;4.40;92.00
50013;DHT22;35901;48.694;9.476;2024-01-16T12:28:02;4.30;92.10
50013;DHT22;35901;48.694;9.476;2024-01-16T12:30:30;4.30;90.60
50013;DHT22;35901;48.694;9.476;2024-01-16T12:33:16;4.00;89.70
50013;DHT22;35901;48.694;9.476;2024-01-16T12:35:43;3.90;90.10
50013;DHT22;35901;48.694;9.476;2024-01-16T12:38:13;3.60;91.20
50013;DHT22;35901;48.694;9.476;2024-01-16T12:40:49;3.40;91.60
50013;DHT22;35901;48.694;9.476;2024-01-16T12:43:19;3.10;91.20
50013;DHT22;35901;48.694;9.476;2024-01-16T12:45:45;3.00;91.50
50013;DHT22;35901;48.694;9.476;2024-01-16T12:48:11;2.90;90.70
50013;DHT22;35901;48.694;9.476;2024-01-16T12:50:37;2.80;91.10
50013;DHT22;35901;48.694;9.476;2024-01-16T12:53:07;2.40;91.40
50013;DHT22;35901;48.694;9.476;2024-01-16T12:55:34;2.50;91.90
50013;DHT22;35901;48.694;9.476;2024-01-16T13:01:27;2.70;91.50
50013;DHT22;35901;48.694;9.476;2024-01-16T13:03:57;2.70;90.90
50013;DHT22;35901;48.694;9.476;2024-01-16T13:06:28;2.60;90.60
50013;DHT22;35901;48.694;9.476;2024-01-16T13:09:08;2.80;91.50
50013;DHT22;35901;48.694;9.476;2024-01-16T13:11:51;2.40;91.60
50013;DHT22;35901;48.694;9.476;2024-01-16T13:14:18;2.10;91.50
50013;DHT22;35901;48.694;9.476;2024-01-16T13:16:46;2.00;91.80
50013;DHT22;35901;48.694;9.476;2024-01-16T13:19:16;1.70;91.70
50013;DHT22;35901;48.694;9.476;2024-01-16T13:21:42;1.70;92.20
50013;DHT22;35901;48.694;9.476;2024-01-16T13:24:08;1.60;91.70
50013;DHT22;35901;48.694;9.476;2024-01-16T13:26:34;1.60;92.10
50013;DHT22;35901;48.694;9.476;2024-01-16T13:29:01;1.50;91.80
50013;DHT22;35901;48.694;9.476;2024-01-16T13:31:27;1.50;92.00
50013;DHT22;35901;48.694;9.476;2024-01-16T13:33:52;1.50;91.70
50013;DHT22;35901;48.694;9.476;2024-01-16T13:36:18;1.70;92.50
50013;DHT22;35901;48.694;9.476;2024-01-16T13:38:44;1.80;92.40
50013;DHT22;35901;48.694;9.476;2024-01-16T13:41:10;2.00;92.70
50013;DHT22;35901;48.694;9.476;2024-01-16T13:43:36;2.00;92.20
50013;DHT22;35901;48.694;9.476;2024-01-16T13:46:03;2.10;92.30
50013;DHT22;35901;48.694;9.476;2024-01-16T13:48:29;2.10;91.60
50013;DHT22;35901;48.694;9.476;2024-01-16T13:50:55;2.00;92.20
50013;DHT22;35901;48.694;9.476;2024-01-16T13:53:21;2.00;92.20
50013;DHT22;35901;48.694;9.476;2024-01-16T13:55:46;1.90;92.10
50013;DHT22;35901;48.694;9.476;2024-01-16T13:58:12;1.90;92.10
50013;DHT22;35901;48.694;9.476;2024-01-16T14:00:38;1.80;92.30
50013;DHT22;35901;48.694;9.476;2024-01-16T14:03:04;1.70;92.10
50013;DHT22;35901;48.694;9.476;2024-01-16T14:05:32;1.60;92.10
50013;DHT22;35901;48.694;9.476;2024-01-16T14:07:58;1.60;91.90
50013;DHT22;35901;48.694;9.476;2024-01-16T14:10:24;1.60;90.90
50013;DHT22;35901;48.694;9.476;2024-01-16T14:12:51;2.10;91.20
50013;DHT22;35901;48.694;9.476;2024-01-16T14:15:18;2.60;91.60
50013;DHT22;35901;48.694;9.476;2024-01-16T14:17:47;2.80;91.00
50013;DHT22;35901;48.694;9.476;2024-01-16T14:20:14;2.60;91.00
50013;DHT22;35901;48.694;9.476;2024-01-16T14:22:41;2.40;91.10
50013;DHT22;35901;48.694;9.476;2024-01-16T14:25:08;2.70;91.40
50013;DHT22;35901;48.694;9.476;2024-01-16T14:27:43;3.00;91.30
50013;DHT22;35901;48.694;9.476;2024-01-16T14:30:11;2.70;90.80
50013;DHT22;35901;48.694;9.476;2024-01-16T14:32:38;2.30;91.10
50013;DHT22;35901;48.694;9.476;2024-01-16T14:35:05;2.20;91.40
50013;DHT22;35901;48.694;9.476;2024-01-16T14:37:31;2.10;90.80
50013;DHT22;35901;48.694;9.476;2024-01-16T14:39:58;1.80;90.50
50013;DHT22;35901;48.694;9.476;2024-01-16T14:42:27;1.50;90.70
50013;DHT22;35901;48.694;9.476;2024-01-16T14:44:53;1.20;91.00
50013;DHT22;35901;48.694;9.476;2024-01-16T14:47:20;1.00;91.40
50013;DHT22;35901;48.694;9.476;2024-01-16T14:49:45;0.90;91.50
50013;DHT22;35901;48.694;9.476;2024-01-16T14:52:11;0.80;91.60
50013;DHT22;35901;48.694;9.476;2024-01-16T14:54:39;0.60;91.60
50013;DHT22;35901;48.694;9.476;2024-01-16T14:57:06;0.50;91.90
50013;DHT22;35901;48.694;9.476;2024-01-16T14:59:33;0.40;92.70
50013;DHT22;35901;48.694;9.476;2024-01-16T15:01:58;0.30;92.30
50013;DHT22;35901;48.694;9.476;2024-01-16T15:04:24;0.20;92.20
50013;DHT22;35901;48.694;9.476;2024-01-16T15:06:50;0.20;92.20
50013;DHT22;35901;48.694;9.476;2024-01-16T15:09:18;0.20;92.60
50013;DHT22;35901;48.694;9.476;2024-01-16T15:11:44;0.10;92.70
50013;DHT22;35901;48.694;9.476;2024-01-16T15:14:11;0.00;92.60
50013;DHT22;35901;48.694;9.476;2024-01-16T15:16:38;-0.10;92.90
50013;DHT22;35901;48.694;9.476;2024-01-16T15:19:04;-0.20;92.50
50013;DHT22;35901;48.694;9.476;2024-01-16T15:21:30;-0.30;92.80
50013;DHT22;35901;48.694;9.476;2024-01-16T15:23:56;-0.40;93.00
50013;DHT22;35901;48.694;9.476;2024-01-16T15:26:25;-0.50;92.90
50013;DHT22;35901;48.694;9.476;2024-01-16T15:28:51;-0.70;93.30
50013;DHT22;35901;48.694;9.476;2024-01-16T15:31:17;-0.70;93.30
50013;DHT22;35901;48.694;9.476;2024-01-16T15:33:43;-0.80;93.10
50013;DHT22;35901;48.694;9.476;2024-01-16T15:36:09;-1.00;93.20
50013;DHT22;35901;48.694;9.476;2024-01-16T15:38:35;-1.20;95.80
50013;DHT22;35901;48.694;9.476;2024-01-16T15:41:00;-1.40;95.50
50013;DHT22;35901;48.694;9.476;2024-01-16T15:43:26;-1.50;98.00
50013;DHT22;35901;48.694;9.476;2024-01-16T15:45:51;-1.50;98.40
50013;DHT22;35901;48.694;9.476;2024-01-16T15:48:17;-1.60;98.70
50013;DHT22;35901;48.694;9.476;2024-01-16T15:50:43;-1.70;97.60
50013;DHT22;35901;48.694;9.476;2024-01-16T15:53:09;-1.70;98.40
50013;DHT22;35901;48.694;9.476;2024-01-16T15:55:45;-1.80;99.00
50013;DHT22;35901;48.694;9.476;2024-01-16T15:58:12;-1.90;98.70